createdAt,value
2023-04-04T00:03:58.142Z,5.30
2023-04-04T00:09:02.093Z,5.63
2023-04-04T00:14:06.068Z,7.77
2023-04-04T00:19:12.085Z,5.30
2023-04-04T00:24:15.359Z,4.37
2023-04-04T00:29:18.936Z,6.37
2023-04-04T00:34:22.268Z,8.03
2023-04-04T00:39:26.986Z,9.17
2023-04-04T00:44:31.213Z,5.27
2023-04-04T00:49:34.977Z,7.33
2023-04-04T00:54:38.426Z,8.50
2023-04-04T00:59:43.829Z,7.30
2023-04-04T01:04:48.019Z,5.17
2023-04-04T01:09:52.031Z,6.23
2023-04-04T01:14:55.322Z,4.47
2023-04-04T01:20:16.095Z,2.87
2023-04-04T01:25:25.014Z,4.53
2023-04-04T01:30:34.130Z,3.67
2023-04-04T01:35:59.119Z,4.43
2023-04-04T01:41:05.227Z,3.63
2023-04-04T01:46:08.613Z,5.50
2023-04-04T01:51:12.314Z,4.90
2023-04-04T01:56:15.472Z,7.43
2023-04-04T02:01:18.741Z,8.10
2023-04-04T02:06:22.018Z,5.83
2023-04-04T02:11:26.377Z,4.53
2023-04-04T02:16:30.099Z,3.87
2023-04-04T02:21:33.266Z,3.77
2023-04-04T02:26:36.749Z,4.60
2023-04-04T02:31:40.161Z,4.10
2023-04-04T02:36:43.514Z,3.27
2023-04-04T02:41:48.105Z,1.80
2023-04-04T02:46:51.232Z,3.87
2023-04-04T02:51:55.316Z,4.37
2023-04-04T02:56:58.581Z,2.67
2023-04-04T03:02:01.877Z,3.77
2023-04-04T03:07:05.549Z,3.37
2023-04-04T03:12:09.627Z,4.93
2023-04-04T03:17:15.813Z,3.20
2023-04-04T03:22:19.052Z,3.43
2023-04-04T03:27:22.536Z,2.87
2023-04-04T03:32:26.728Z,3.03
2023-04-04T03:37:33.005Z,3.13
2023-04-04T03:42:36.456Z,2.07
2023-04-04T03:47:40.002Z,3.03
2023-04-04T03:52:43.203Z,3.17
2023-04-04T03:57:47.576Z,7.63
2023-04-04T04:02:50.855Z,3.00
2023-04-04T04:07:54.220Z,2.80
2023-04-04T04:12:57.457Z,2.70
2023-04-04T04:18:00.915Z,6.17
2023-04-04T04:23:04.265Z,1.50
2023-04-04T04:28:07.523Z,2.37
2023-04-04T04:33:11.058Z,2.97
2023-04-04T04:38:14.273Z,2.43
2023-04-04T04:43:17.537Z,3.37
2023-04-04T04:48:21.376Z,4.27
2023-04-04T04:53:24.566Z,1.17
2023-04-04T04:58:28.742Z,1.97
2023-04-04T05:03:32.429Z,3.10
2023-04-04T05:08:35.700Z,1.60
2023-04-04T05:13:39.030Z,2.63
2023-04-04T05:18:42.299Z,1.53
2023-04-04T05:23:45.700Z,3.70
2023-04-04T05:28:49.372Z,1.83
2023-04-04T05:33:52.870Z,2.70
2023-04-04T05:38:56.201Z,2.27
2023-04-04T05:43:59.765Z,2.50
2023-04-04T05:49:03.011Z,7.37
2023-04-04T05:54:07.844Z,2.80
2023-04-04T05:59:11.465Z,3.20
2023-04-04T06:04:15.400Z,2.53
2023-04-04T06:09:19.128Z,1.90
2023-04-04T06:14:22.759Z,1.63
2023-04-04T06:19:26.016Z,3.00
2023-04-04T06:24:29.211Z,3.47
2023-04-04T06:29:32.804Z,3.40
2023-04-04T06:34:37.582Z,3.07
2023-04-04T06:39:41.022Z,3.33
2023-04-04T06:44:44.260Z,5.63
2023-04-04T06:49:47.843Z,2.77
2023-04-04T06:54:51.410Z,2.17
2023-04-04T06:59:54.716Z,2.87
2023-04-04T07:04:57.922Z,4.47
2023-04-04T07:10:01.666Z,2.53
2023-04-04T07:15:04.989Z,3.47
2023-04-04T07:20:09.571Z,4.40
2023-04-04T07:25:14.416Z,2.57
2023-04-04T07:30:18.027Z,4.83
2023-04-04T07:35:21.860Z,4.40
2023-04-04T07:40:25.672Z,4.60
2023-04-04T07:45:29.136Z,1.97
2023-04-04T07:50:32.314Z,3.13
2023-04-04T07:55:35.492Z,2.43
2023-04-04T08:00:38.967Z,3.40
2023-04-04T08:05:42.755Z,4.40
2023-04-04T08:10:46.453Z,2.90
2023-04-04T08:15:49.773Z,2.83
2023-04-04T08:20:52.874Z,4.50
2023-04-04T08:25:56.797Z,7.20
2023-04-04T08:31:00.452Z,3.00
2023-04-04T08:36:03.919Z,2.50
2023-04-04T08:41:07.610Z,1.80
2023-04-04T08:46:13.160Z,4.03
2023-04-04T08:51:17.903Z,2.20
2023-04-04T08:56:22.200Z,3.87
2023-04-04T09:01:25.615Z,4.10
2023-04-04T09:06:29.488Z,5.33
2023-04-04T09:11:34.067Z,2.27
2023-04-04T09:16:37.767Z,3.67
2023-04-04T09:21:40.888Z,2.80
2023-04-04T09:26:48.925Z,3.13
2023-04-04T09:31:52.245Z,3.43
2023-04-04T09:36:55.630Z,2.20
2023-04-04T09:41:59.760Z,5.03
2023-04-04T09:52:36.301Z,4.87
2023-04-04T09:57:42.241Z,2.07
2023-04-04T10:02:49.735Z,3.70
2023-04-04T10:07:52.970Z,3.07
2023-04-04T10:12:59.270Z,5.07
2023-04-04T10:18:04.131Z,3.43
2023-04-04T10:23:07.404Z,4.50
2023-04-04T10:28:11.173Z,3.77
2023-04-04T10:33:32.929Z,2.33
2023-04-04T10:38:44.410Z,6.23
2023-04-04T10:51:54.979Z,1.57
2023-04-04T10:57:04.683Z,5.83
2023-04-04T11:02:11.133Z,2.70
2023-04-04T11:07:18.294Z,3.03
2023-04-04T11:12:31.821Z,2.13
2023-04-04T11:17:50.244Z,3.20
2023-04-04T11:23:11.239Z,2.90
2023-04-04T11:28:24.930Z,3.40
2023-04-04T11:33:28.888Z,3.00
2023-04-04T11:38:32.191Z,3.70
2023-04-04T11:43:44.748Z,4.87
2023-04-04T11:48:48.758Z,3.00
2023-04-04T11:53:52.818Z,2.40
2023-04-04T11:59:08.791Z,2.30
2023-04-04T12:04:20.422Z,4.83
2023-04-04T12:09:26.335Z,3.00
2023-04-04T12:14:32.664Z,5.97
2023-04-04T12:19:40.921Z,7.37
2023-04-04T12:24:44.205Z,6.03
2023-04-04T12:29:48.010Z,4.30
2023-04-04T12:34:51.200Z,2.43
2023-04-04T12:39:55.615Z,3.33
2023-04-04T12:45:02.465Z,6.00
2023-04-04T12:50:09.749Z,2.53
2023-04-04T12:55:13.652Z,6.27
2023-04-04T13:00:17.336Z,2.70
2023-04-04T13:05:23.606Z,3.80
2023-04-04T13:10:26.975Z,5.10
2023-04-04T13:15:56.422Z,5.13
2023-04-04T13:20:59.657Z,2.73
2023-04-04T13:26:04.990Z,3.83
2023-04-04T13:31:13.832Z,3.70
2023-04-04T13:36:17.088Z,2.50
2023-04-04T13:41:20.425Z,4.60
2023-04-04T13:46:23.583Z,2.60
2023-04-04T13:51:28.074Z,2.43
2023-04-04T13:56:31.329Z,4.03
2023-04-04T14:01:34.842Z,4.30
2023-04-04T14:06:38.140Z,2.43
2023-04-04T14:11:42.122Z,3.57
2023-04-04T14:16:45.605Z,3.53
2023-04-04T14:21:50.084Z,1.83
2023-04-04T14:26:53.430Z,2.80
2023-04-04T14:31:56.857Z,4.50
2023-04-04T14:37:00.714Z,2.90
2023-04-04T14:42:04.366Z,3.00
2023-04-04T14:47:07.684Z,3.60
2023-04-04T14:52:10.816Z,1.53
2023-04-04T14:57:14.022Z,2.73
2023-04-04T15:02:17.831Z,1.33
2023-04-04T15:07:24.704Z,4.60
2023-04-04T15:12:28.437Z,4.00
2023-04-04T15:17:32.518Z,3.63
2023-04-04T15:22:35.761Z,3.67
2023-04-04T15:27:39.472Z,2.40
2023-04-04T15:32:42.702Z,2.23
2023-04-04T15:37:46.584Z,5.80
2023-04-04T15:42:50.028Z,3.77
2023-04-04T15:47:53.483Z,2.43
2023-04-04T15:52:57.129Z,2.80
2023-04-04T15:58:00.373Z,3.53
2023-04-04T16:03:03.618Z,3.33
2023-04-04T16:08:06.961Z,4.40
2023-04-04T16:13:10.472Z,3.30
2023-04-04T16:18:13.785Z,2.23
2023-04-04T16:23:18.196Z,3.40
2023-04-04T16:28:21.753Z,3.27
2023-04-04T16:33:25.026Z,2.87
2023-04-04T16:38:28.215Z,3.43
2023-04-04T16:43:31.403Z,4.40
2023-04-04T16:48:34.624Z,7.60
2023-04-04T16:53:38.869Z,7.10
2023-04-04T16:58:45.292Z,10.63
2023-04-04T17:03:52.475Z,8.37
2023-04-04T17:08:56.340Z,6.33
2023-04-04T17:13:59.658Z,5.90
2023-04-04T17:19:03.032Z,9.07
2023-04-04T17:24:06.663Z,5.73
2023-04-04T17:29:10.313Z,4.70
2023-04-04T17:34:15.476Z,8.43
2023-04-04T17:39:19.133Z,4.53
2023-04-04T17:44:23.288Z,7.40
2023-04-04T17:49:26.693Z,7.20
2023-04-04T17:54:31.417Z,5.63
2023-04-04T17:59:35.714Z,6.33
2023-04-04T18:04:39.439Z,7.50
2023-04-04T18:09:45.747Z,8.37
2023-04-04T18:14:49.970Z,9.23
2023-04-04T18:19:56.055Z,6.90
2023-04-04T18:25:00.130Z,12.70
2023-04-04T18:30:04.174Z,7.37
2023-04-04T18:35:11.136Z,10.97
2023-04-04T18:40:14.990Z,11.47
2023-04-04T18:45:20.949Z,10.57
2023-04-04T18:50:28.372Z,7.63
2023-04-04T18:55:32.481Z,6.57
2023-04-04T19:00:36.029Z,11.27
2023-04-04T19:05:44.061Z,8.77
2023-04-04T19:10:52.370Z,9.30
2023-04-04T19:15:57.252Z,12.10
2023-04-04T19:21:03.607Z,8.00
2023-04-04T19:26:09.403Z,6.87
2023-04-04T19:31:31.065Z,9.23
2023-04-04T19:36:38.577Z,7.23
2023-04-04T19:41:43.239Z,8.93
2023-04-04T19:46:49.773Z,8.17
2023-04-04T19:51:55.349Z,9.23
2023-04-04T19:57:21.709Z,6.70
2023-04-04T20:02:28.257Z,8.83
2023-04-04T20:07:32.006Z,8.27
2023-04-04T20:12:38.599Z,10.40
2023-04-04T20:17:42.915Z,7.07
2023-04-04T20:22:47.197Z,7.37
2023-04-04T20:27:53.112Z,6.00
2023-04-04T20:32:58.913Z,7.50
2023-04-04T20:38:04.188Z,9.20
2023-04-04T20:43:09.553Z,7.23
2023-04-04T20:48:43.278Z,5.70
2023-04-04T20:53:46.553Z,7.60
2023-04-04T20:58:49.726Z,11.07
2023-04-04T21:03:52.965Z,11.37
2023-04-04T21:08:56.803Z,11.53
2023-04-04T21:14:00.023Z,12.17
2023-04-04T21:19:04.299Z,10.87
2023-04-04T21:24:13.098Z,11.03
2023-04-04T21:29:25.055Z,9.37
2023-04-04T21:34:28.815Z,7.17
2023-04-04T21:39:32.681Z,7.43
2023-04-04T21:44:36.299Z,9.03
2023-04-04T21:49:39.455Z,13.37
2023-04-04T21:54:42.747Z,12.10
2023-04-04T21:59:46.019Z,14.60
2023-04-04T22:04:49.749Z,13.37
2023-04-04T22:09:55.346Z,14.80
2023-04-04T22:14:59.160Z,14.73
2023-04-04T22:20:09.145Z,14.03
2023-04-04T22:25:13.484Z,21.97
2023-04-04T22:30:17.352Z,21.47
2023-04-04T22:35:20.539Z,23.73
2023-04-04T22:40:24.164Z,15.50
2023-04-04T22:45:29.932Z,18.83
2023-04-04T22:50:35.777Z,21.37
2023-04-04T22:55:40.483Z,20.90
2023-04-04T23:00:44.646Z,16.80
2023-04-04T23:05:48.316Z,20.07
2023-04-04T23:10:51.786Z,17.80
2023-04-04T23:15:54.846Z,17.93
2023-04-04T23:20:58.448Z,14.60
2023-04-04T23:26:02.083Z,17.37
2023-04-04T23:31:05.538Z,19.23
2023-04-04T23:36:09.730Z,15.90
2023-04-04T23:41:13.315Z,22.53
2023-04-04T23:46:17.154Z,17.07
2023-04-04T23:51:21.714Z,14.47
2023-04-04T23:56:24.813Z,12.63
